Pagina principale
METAR-TAF:

METAR-TAF

Aeroporti :

Aeroporto Internazionale del Kuwait

Madinat al-Kuwait, Kuwait

latitudine: 29-13N, longitudine: 047-59E, altezza: 55 m

Osservazione

Il bollettino è stato emesso 58 minuti fa, alle 08:00 UTC
Vento 11 kt da nord/nord-ovest
Temperature 41°C
Umidità 15%
Pressione 999 hPa
Visibilità 10 km o più
nessuna nube inferiore a 1500 m e nessun cumulonembo

METAR: OKBK 220800Z 34011KT CAVOK 41/09 Q0999 NOSIG

Ora: 11:58 (08:58 UTC)

Previsione

Il bollettino è stato emesso 4 ore e 13 minuti fa, alle 04:45 UTC
Previsione valida dal 22 alle 06 UTC al 23 alle 12 UTC
Vento 12 kt da nord/nord-ovest con raffiche fino a 22 kt
Visibilità: 7000 m
Cielo sereno
Temporaneamente
dal 22 alle 08 UTC al 22 alle 14 UTC
Visibilità: 2000 m
Scaccia polvere alto

TAF: OKBK 220445Z 2206/2312 34012G22KT 7000 SKC TEMPO 2208/2214 2000 BLDU

Osservazioni e previsioni meteorologiche di più di 4000 aeroporti (messaggi METAR e TAF).

Le stazioni disponibili sono rappresentate dai dischi gialli e rossi sulla carta.

Puntare il mouse per vedere il nome della stazione.

Clicca sopra per visualizzare le osservazioni e previsioni meteorologiche.

Per cambiare la mappa : fare clic sui pulsanti verdi con una croce nera per ingrandire, il pulsante verde con un trattino per diminuire, o sulla freccia verde per le mappe adiacenti.


METAR-TAF: